createdAt,value
2022-09-15T00:00:35.918Z,100623.81
2022-09-15T00:02:57.813Z,100623.41
2022-09-15T00:05:19.906Z,100622.56
2022-09-15T00:07:41.825Z,100628.13
2022-09-15T00:10:06.601Z,100626.88
2022-09-15T00:12:28.468Z,100635.66
2022-09-15T00:14:50.301Z,100626.53
2022-09-15T00:17:12.240Z,100626.88
2022-09-15T00:19:34.092Z,100622.88
2022-09-15T00:21:55.876Z,100625.22
2022-09-15T00:24:17.652Z,100626.03
2022-09-15T00:26:39.529Z,100627.63
2022-09-15T00:29:02.562Z,100630.41
2022-09-15T00:31:27.547Z,100634.75
2022-09-15T00:33:52.874Z,100626.09
2022-09-15T00:36:15.950Z,100630.47
2022-09-15T00:38:38.720Z,100617.41
2022-09-15T00:41:01.834Z,100616.66
2022-09-15T00:43:51.189Z,100622.28
2022-09-15T00:46:15.041Z,100623.09
2022-09-15T00:48:44.241Z,100627.91
2022-09-15T00:51:10.265Z,100623.94
2022-09-15T00:53:35.550Z,100623.22
2022-09-15T00:55:59.462Z,100617.69
2022-09-15T00:58:33.388Z,100619.28
2022-09-15T01:01:02.082Z,100620.16
2022-09-15T01:03:27.224Z,100614.22
2022-09-15T01:05:57.845Z,100619.84
2022-09-15T01:08:33.271Z,100626.63
2022-09-15T01:10:56.745Z,100621.53
2022-09-15T01:13:18.798Z,100608.44
2022-09-15T01:15:56.488Z,100608.88
2022-09-15T01:18:47.099Z,100614.88
2022-09-15T01:21:36.639Z,100617.63
2022-09-15T01:24:35.106Z,100616.09
2022-09-15T01:27:30.895Z,100615.66
2022-09-15T01:30:02.451Z,100621.13
2022-09-15T01:33:00.945Z,100627.06
2022-09-15T01:36:03.744Z,100628.66
2022-09-15T01:39:01.054Z,100631.38
2022-09-15T01:41:48.332Z,100640.88
2022-09-15T01:44:22.236Z,100634.88
2022-09-15T01:46:49.772Z,100636.50
2022-09-15T01:49:19.426Z,100635.31
2022-09-15T01:51:46.024Z,100629.00
2022-09-15T01:54:10.371Z,100635.44
2022-09-15T01:56:32.532Z,100626.38
2022-09-15T01:58:54.543Z,100621.25
2022-09-15T02:01:32.142Z,100619.78
2022-09-15T02:04:15.784Z,100608.75
2022-09-15T02:07:11.742Z,100618.69
2022-09-15T02:09:51.035Z,100619.91
2022-09-15T02:12:27.445Z,100613.56
2022-09-15T02:15:16.639Z,100619.91
2022-09-15T02:17:48.239Z,100619.91
2022-09-15T02:20:25.390Z,100617.16
2022-09-15T02:22:55.748Z,100613.19
2022-09-15T02:25:28.983Z,100617.59
2022-09-15T02:27:57.395Z,100613.63
2022-09-15T02:30:21.395Z,100613.63
2022-09-15T02:32:56.224Z,100612.44
2022-09-15T02:35:18.558Z,100615.22
2022-09-15T02:37:40.918Z,100619.59
2022-09-15T02:40:04.786Z,100606.47
2022-09-15T02:42:32.752Z,100612.38
2022-09-15T02:44:55.546Z,100609.19
2022-09-15T02:47:17.333Z,100611.97
2022-09-15T02:49:39.151Z,100619.03
2022-09-15T02:52:00.986Z,100616.63
2022-09-15T02:54:22.766Z,100615.41
2022-09-15T02:56:45.148Z,100620.53
2022-09-15T02:59:07.753Z,100629.59
2022-09-15T03:01:32.239Z,100624.44
2022-09-15T03:03:53.934Z,100626.75
2022-09-15T03:06:18.521Z,100623.91
2022-09-15T03:08:40.233Z,100621.53
2022-09-15T03:11:02.003Z,100631.78
2022-09-15T03:13:24.017Z,100620.28
2022-09-15T03:15:45.836Z,100638.88
2022-09-15T03:18:07.672Z,100624.22
2022-09-15T03:20:30.315Z,100632.53
2022-09-15T03:22:52.139Z,100636.50
2022-09-15T03:25:14.182Z,100636.84
2022-09-15T03:27:36.581Z,100642.41
2022-09-15T03:29:58.621Z,100652.69
2022-09-15T03:32:20.383Z,100658.25
2022-09-15T03:34:42.448Z,100657.44
2022-09-15T03:37:04.455Z,100653.50
2022-09-15T03:39:26.525Z,100656.66
2022-09-15T03:41:48.288Z,100666.94
2022-09-15T03:44:10.112Z,100662.56
2022-09-15T03:46:32.146Z,100662.91
2022-09-15T03:48:53.915Z,100654.59
2022-09-15T03:51:15.837Z,100660.16
2022-09-15T03:53:41.991Z,100660.59
2022-09-15T03:56:18.350Z,100661.38
2022-09-15T03:58:40.195Z,100660.22
2022-09-15T04:01:02.014Z,100654.25
2022-09-15T04:03:23.920Z,100657.44
2022-09-15T04:05:45.700Z,100661.81
2022-09-15T04:08:09.497Z,100647.94
2022-09-15T04:10:31.752Z,100651.50
2022-09-15T04:12:54.227Z,100653.13
2022-09-15T04:15:16.150Z,100643.63
2022-09-15T04:17:37.953Z,100647.19
2022-09-15T04:20:01.255Z,100645.63
2022-09-15T04:22:23.126Z,100642.47
2022-09-15T04:24:45.132Z,100642.47
2022-09-15T04:27:07.169Z,100644.06
2022-09-15T04:29:28.989Z,100642.88
2022-09-15T04:31:53.021Z,100645.31
2022-09-15T04:34:14.900Z,100643.72
2022-09-15T04:36:37.324Z,100646.09
2022-09-15T04:38:59.239Z,100652.09
2022-09-15T04:41:22.131Z,100644.56
2022-09-15T04:43:44.320Z,100644.66
2022-09-15T04:46:08.432Z,100644.25
2022-09-15T04:48:31.821Z,100651.06
2022-09-15T04:50:54.727Z,100655.06
2022-09-15T04:53:17.320Z,100649.13
2022-09-15T04:55:39.504Z,100651.91
2022-09-15T04:58:02.703Z,100645.63
2022-09-15T05:00:27.085Z,100648.38
2022-09-15T05:02:49.035Z,100646.44
2022-09-15T05:05:10.834Z,100654.03
2022-09-15T05:07:32.687Z,100648.13
2022-09-15T05:09:54.654Z,100646.50
2022-09-15T05:12:17.440Z,100640.94
2022-09-15T05:14:39.278Z,100642.91
2022-09-15T05:17:01.267Z,100641.31
2022-09-15T05:19:23.545Z,100637.38
2022-09-15T05:21:45.444Z,100638.16
2022-09-15T05:24:07.493Z,100639.34
2022-09-15T05:26:30.106Z,100645.25
2022-09-15T05:28:52.460Z,100657.91
2022-09-15T05:31:27.978Z,100663.41
2022-09-15T05:33:52.723Z,100666.09
2022-09-15T05:36:15.860Z,100664.50
2022-09-15T05:38:37.811Z,100669.97
2022-09-15T05:41:04.471Z,100668.75
2022-09-15T05:43:26.405Z,100675.03
2022-09-15T05:45:55.224Z,100683.00
2022-09-15T05:48:17.015Z,100678.25
2022-09-15T05:50:39.578Z,100682.25
2022-09-15T05:53:01.373Z,100687.81
2022-09-15T05:55:23.221Z,100679.91
2022-09-15T05:57:44.980Z,100682.31
2022-09-15T06:00:07.899Z,100683.53
2022-09-15T06:02:33.830Z,100684.78
2022-09-15T06:04:55.631Z,100683.25
2022-09-15T06:07:17.503Z,100679.34
2022-09-15T06:09:39.488Z,100686.53
2022-09-15T06:12:01.531Z,100690.16
2022-09-15T06:14:23.950Z,100688.59
2022-09-15T06:16:45.899Z,100698.59
2022-09-15T06:19:07.784Z,100691.16
2022-09-15T06:21:31.455Z,100683.69
2022-09-15T06:23:55.569Z,100686.16
2022-09-15T06:26:19.342Z,100699.31
2022-09-15T06:28:48.449Z,100684.66
2022-09-15T06:31:13.356Z,100689.50
2022-09-15T06:33:35.143Z,100703.78
2022-09-15T06:35:59.779Z,100697.88
2022-09-15T06:38:21.677Z,100697.13
2022-09-15T06:40:43.442Z,100711.09
2022-09-15T06:43:05.514Z,100708.81
2022-09-15T06:45:27.351Z,100710.50
2022-09-15T06:48:13.358Z,100713.31
2022-09-15T06:50:34.126Z,100716.16
2022-09-15T06:52:55.951Z,100719.41
2022-09-15T06:55:17.940Z,100726.63
2022-09-15T06:57:39.722Z,100727.50
2022-09-15T07:00:02.561Z,100735.53
2022-09-15T07:02:24.563Z,100737.97
2022-09-15T07:04:46.522Z,100737.22
2022-09-15T07:07:08.579Z,100744.84
2022-09-15T07:09:30.498Z,100742.47
2022-09-15T07:11:52.821Z,100742.53
2022-09-15T07:14:14.786Z,100742.13
2022-09-15T07:16:36.682Z,100744.19
2022-09-15T07:19:01.332Z,100742.66
2022-09-15T07:21:23.077Z,100747.78
2022-09-15T07:23:45.100Z,100748.13
2022-09-15T07:26:09.926Z,100751.00
2022-09-15T07:28:31.757Z,100756.59
2022-09-15T07:30:53.583Z,100752.25
2022-09-15T07:33:15.642Z,100751.13
2022-09-15T07:35:45.134Z,100752.03
2022-09-15T07:38:06.899Z,100748.91
2022-09-15T07:40:29.240Z,100745.00
2022-09-15T07:42:51.080Z,100755.88
2022-09-15T07:45:12.952Z,100761.91
2022-09-15T07:47:34.833Z,100756.44
2022-09-15T07:49:56.640Z,100760.91
2022-09-15T07:52:18.509Z,100766.91
2022-09-15T07:54:40.349Z,100764.97
2022-09-15T07:57:02.298Z,100764.56
2022-09-15T07:59:24.095Z,100763.41
2022-09-15T08:01:46.906Z,100766.59
2022-09-15T08:04:08.771Z,100769.75
2022-09-15T08:06:30.731Z,100774.94
2022-09-15T08:08:57.737Z,100782.91
2022-09-15T08:11:22.561Z,100780.56
2022-09-15T08:13:49.621Z,100787.34
2022-09-15T08:16:16.071Z,100795.72
2022-09-15T08:18:42.341Z,100791.78
2022-09-15T08:21:07.128Z,100792.63
2022-09-15T08:23:28.924Z,100789.53
2022-09-15T08:25:51.797Z,100790.41
2022-09-15T08:28:14.109Z,100787.72
2022-09-15T08:30:36.152Z,100793.75
2022-09-15T08:32:58.005Z,100789.44
2022-09-15T08:35:20.412Z,100799.88
2022-09-15T08:37:42.282Z,100809.09
2022-09-15T08:40:04.739Z,100805.19
2022-09-15T08:42:29.134Z,100799.69
2022-09-15T08:44:59.751Z,100807.63
2022-09-15T08:47:46.748Z,100814.84
2022-09-15T08:50:28.383Z,100815.63
2022-09-15T08:53:02.341Z,100808.91
2022-09-15T08:55:48.923Z,100818.94
2022-09-15T08:58:20.351Z,100824.56
2022-09-15T09:00:46.806Z,100830.59
2022-09-15T09:04:15.366Z,100835.38
2022-09-15T09:07:00.630Z,100838.16
2022-09-15T09:09:48.394Z,100832.94
2022-09-15T09:12:23.665Z,100841.31
2022-09-15T09:15:43.381Z,100841.31
2022-09-15T09:18:41.885Z,100843.25
2022-09-15T09:21:22.343Z,100833.22
2022-09-15T09:23:54.258Z,100844.34
2022-09-15T09:26:16.651Z,100849.13
2022-09-15T09:29:08.286Z,100842.78
2022-09-15T09:31:30.249Z,100844.28
2022-09-15T09:34:06.191Z,100846.66
2022-09-15T09:36:28.339Z,100851.00
2022-09-15T09:38:51.042Z,100855.34
2022-09-15T09:41:25.326Z,100853.31
2022-09-15T09:43:49.943Z,100855.63
2022-09-15T09:46:17.933Z,100850.84
2022-09-15T09:48:46.445Z,100853.63
2022-09-15T09:51:59.917Z,100856.88
2022-09-15T09:54:27.265Z,100853.69
2022-09-15T09:56:52.016Z,100857.31
2022-09-15T09:59:43.246Z,100856.16
2022-09-15T10:02:11.126Z,100851.47
2022-09-15T10:04:32.928Z,100850.72
2022-09-15T10:06:56.446Z,100850.84
2022-09-15T10:09:19.932Z,100854.09
2022-09-15T10:11:52.147Z,100850.53
2022-09-15T10:14:42.006Z,100853.38
2022-09-15T10:17:15.527Z,100849.88
2022-09-15T10:19:47.969Z,100850.31
2022-09-15T10:22:33.553Z,100842.75
2022-09-15T10:24:55.467Z,100852.00
2022-09-15T10:27:34.870Z,100839.38
2022-09-15T10:30:16.304Z,100836.34
2022-09-15T10:32:38.881Z,100829.31
2022-09-15T10:35:11.504Z,100827.28
2022-09-15T10:38:11.626Z,100843.97
2022-09-15T10:40:54.101Z,100850.25
2022-09-15T10:43:42.490Z,100862.03
2022-09-15T10:46:39.260Z,100857.38
2022-09-15T10:49:37.348Z,100852.28
2022-09-15T10:52:34.187Z,100856.03
2022-09-15T10:55:52.638Z,100857.88
2022-09-15T10:58:43.536Z,100860.53
2022-09-15T11:01:29.076Z,100860.00
2022-09-15T11:04:15.533Z,100858.72
2022-09-15T11:06:51.639Z,100862.69
2022-09-15T11:09:13.410Z,100857.91
2022-09-15T11:11:54.597Z,100857.13
2022-09-15T11:14:44.160Z,100862.25
2022-09-15T11:17:37.511Z,100857.88
2022-09-15T11:20:21.953Z,100866.69
2022-09-15T11:22:58.222Z,100866.41
2022-09-15T11:25:25.699Z,100864.84
2022-09-15T11:27:53.986Z,100862.13
2022-09-15T11:30:29.602Z,100860.97
2022-09-15T11:33:13.179Z,100865.75
2022-09-15T11:35:45.190Z,100870.56
2022-09-15T11:38:32.093Z,100855.09
2022-09-15T11:41:02.942Z,100871.09
2022-09-15T11:43:37.633Z,100867.19
2022-09-15T11:46:25.294Z,100872.47
2022-09-15T11:49:08.769Z,100872.19
2022-09-15T11:51:41.884Z,100872.75
2022-09-15T11:54:21.295Z,100873.06
2022-09-15T11:56:47.294Z,100866.88
2022-09-15T11:59:39.575Z,100868.25
2022-09-15T12:02:39.197Z,100860.47
2022-09-15T12:05:15.053Z,100849.41
2022-09-15T12:07:59.702Z,100843.06
2022-09-15T12:10:31.310Z,100843.09
2022-09-15T12:12:54.381Z,100849.47
2022-09-15T12:15:27.119Z,100845.91
2022-09-15T12:18:06.636Z,100837.19
2022-09-15T12:20:53.426Z,100837.66
2022-09-15T12:23:25.369Z,100834.06
2022-09-15T12:26:17.688Z,100825.72
2022-09-15T12:28:54.180Z,100827.31
2022-09-15T12:31:40.468Z,100817.72
2022-09-15T12:34:24.773Z,100812.91
2022-09-15T12:36:52.970Z,100821.69
2022-09-15T12:39:43.440Z,100822.88
2022-09-15T12:42:21.334Z,100820.91
2022-09-15T12:44:44.992Z,100819.31
2022-09-15T12:47:21.744Z,100819.31
2022-09-15T12:49:48.118Z,100822.50
2022-09-15T12:52:12.106Z,100818.50
2022-09-15T12:54:38.714Z,100820.91
2022-09-15T12:57:02.312Z,100814.53
2022-09-15T12:59:28.021Z,100820.09
2022-09-15T13:01:50.844Z,100816.91
2022-09-15T13:04:43.601Z,100812.50
2022-09-15T13:07:21.124Z,100814.50
2022-09-15T13:09:45.604Z,100816.50
2022-09-15T13:12:08.147Z,100810.91
2022-09-15T13:14:42.071Z,100808.13
2022-09-15T13:17:22.780Z,100810.50
2022-09-15T13:19:50.200Z,100807.72
2022-09-15T13:22:16.506Z,100804.13
2022-09-15T13:25:05.813Z,100808.53
2022-09-15T13:27:45.197Z,100810.94
2022-09-15T13:30:44.254Z,100807.31
2022-09-15T13:40:05.134Z,100809.31
2022-09-15T13:43:40.835Z,100813.69
2022-09-15T13:46:31.177Z,100812.50
2022-09-15T13:48:59.106Z,100805.69
2022-09-15T13:51:29.961Z,100814.13
2022-09-15T13:54:06.180Z,100810.91
2022-09-15T13:56:33.782Z,100801.28
2022-09-15T13:59:14.122Z,100808.50
2022-09-15T14:01:40.674Z,100806.50
2022-09-15T14:04:12.719Z,100806.50
2022-09-15T14:06:39.212Z,100804.09
2022-09-15T14:09:13.562Z,100811.28
2022-09-15T14:11:38.163Z,100809.69
2022-09-15T14:14:00.916Z,100810.09
2022-09-15T14:16:33.923Z,100803.69
2022-09-15T14:18:58.601Z,100808.50
2022-09-15T14:21:23.299Z,100811.25
2022-09-15T14:23:52.061Z,100815.19
2022-09-15T14:26:18.693Z,100827.19
2022-09-15T14:28:48.453Z,100827.25
2022-09-15T14:31:10.441Z,100837.69
2022-09-15T14:33:38.278Z,100842.09
2022-09-15T14:36:00.445Z,100842.06
2022-09-15T14:38:25.837Z,100843.28
2022-09-15T14:40:53.398Z,100838.88
2022-09-15T14:43:35.861Z,100836.88
2022-09-15T14:46:18.477Z,100844.84
2022-09-15T14:48:40.369Z,100842.75
2022-09-15T14:51:08.783Z,100838.34
2022-09-15T14:53:38.103Z,100849.91
2022-09-15T14:56:15.166Z,100851.88
2022-09-15T14:58:52.804Z,100847.44
2022-09-15T15:01:30.492Z,100844.63
2022-09-15T15:04:19.338Z,100846.22
2022-09-15T15:06:55.887Z,100845.38
2022-09-15T15:09:38.935Z,100847.31
2022-09-15T15:12:14.535Z,100845.31
2022-09-15T15:14:36.803Z,100845.25
2022-09-15T15:17:05.848Z,100847.63
2022-09-15T15:19:41.282Z,100846.44
2022-09-15T15:22:13.984Z,100845.22
2022-09-15T15:24:42.962Z,100855.59
2022-09-15T15:27:33.241Z,100851.22
2022-09-15T15:29:55.086Z,100852.81
2022-09-15T15:32:22.275Z,100856.41
2022-09-15T15:34:53.665Z,100848.47
2022-09-15T15:37:27.589Z,100851.63
2022-09-15T15:39:49.704Z,100859.19
2022-09-15T15:42:16.237Z,100851.59
2022-09-15T15:44:38.161Z,100855.50
2022-09-15T15:47:23.776Z,100855.50
2022-09-15T15:50:11.880Z,100857.03
2022-09-15T15:52:27.366Z,100860.22
2022-09-15T15:54:49.123Z,100864.97
2022-09-15T15:57:30.310Z,100868.56
2022-09-15T15:59:59.421Z,100864.94
2022-09-15T16:02:23.497Z,100862.50
2022-09-15T16:04:45.324Z,100869.28
2022-09-15T16:07:16.606Z,100862.91
2022-09-15T16:09:38.896Z,100871.66
2022-09-15T16:12:00.926Z,100866.47
2022-09-15T16:14:22.962Z,100870.44
2022-09-15T16:16:45.017Z,100867.25
2022-09-15T16:19:07.861Z,100868.03
2022-09-15T16:21:38.812Z,100863.97
2022-09-15T16:24:00.584Z,100863.53
2022-09-15T16:26:24.963Z,100866.31
2022-09-15T16:28:46.935Z,100869.47
2022-09-15T16:31:13.163Z,100870.25
2022-09-15T16:33:38.086Z,100872.19
2022-09-15T16:36:06.909Z,100881.75
2022-09-15T16:38:28.729Z,100882.50
2022-09-15T16:40:51.264Z,100883.28
2022-09-15T16:43:16.308Z,100880.00
2022-09-15T16:45:40.835Z,100888.34
2022-09-15T16:48:04.050Z,100884.69
2022-09-15T16:50:26.765Z,100886.69
2022-09-15T16:52:48.674Z,100888.63
2022-09-15T16:55:27.239Z,100885.81
2022-09-15T16:57:49.877Z,100892.44
2022-09-15T17:00:12.842Z,100882.44
2022-09-15T17:02:34.733Z,100888.78
2022-09-15T17:04:56.496Z,100886.78
2022-09-15T17:07:18.609Z,100895.09
2022-09-15T17:09:40.916Z,100890.66
2022-09-15T17:12:04.200Z,100887.41
2022-09-15T17:14:26.018Z,100897.72
2022-09-15T17:16:52.672Z,100894.88
2022-09-15T17:19:14.462Z,100899.56
2022-09-15T17:21:36.671Z,100892.41
2022-09-15T17:23:58.486Z,100894.78
2022-09-15T17:26:28.838Z,100898.75
2022-09-15T17:28:52.912Z,100897.88
2022-09-15T17:31:20.533Z,100903.03
2022-09-15T17:33:43.776Z,100900.59
2022-09-15T17:36:05.997Z,100903.69
2022-09-15T17:38:28.111Z,100905.22
2022-09-15T17:40:51.331Z,100898.72
2022-09-15T17:43:23.203Z,100905.38
2022-09-15T17:45:45.691Z,100899.34
2022-09-15T17:48:07.700Z,100894.38
2022-09-15T17:50:33.650Z,100897.06
2022-09-15T17:52:56.463Z,100904.47
2022-09-15T17:55:27.743Z,100913.88
2022-09-15T17:57:50.474Z,100914.16
2022-09-15T18:00:14.152Z,100914.03
2022-09-15T18:02:36.129Z,100915.16
2022-09-15T18:04:58.286Z,100927.38
2022-09-15T18:07:20.208Z,100918.47
2022-09-15T18:09:42.130Z,100921.47
2022-09-15T18:12:04.431Z,100929.31
2022-09-15T18:14:26.158Z,100928.44
2022-09-15T18:16:48.018Z,100926.78
2022-09-15T18:19:09.820Z,100929.06
2022-09-15T18:21:31.740Z,100928.91
2022-09-15T18:23:53.618Z,100934.78
2022-09-15T18:26:15.501Z,100930.31
2022-09-15T18:28:37.257Z,100927.13
2022-09-15T18:30:59.071Z,100934.19
2022-09-15T18:33:24.554Z,100942.06
2022-09-15T18:35:49.137Z,100928.88
2022-09-15T18:38:11.663Z,100932.41
2022-09-15T18:40:33.703Z,100937.47
2022-09-15T18:42:56.593Z,100942.22
2022-09-15T18:45:19.980Z,100948.13
2022-09-15T18:47:44.953Z,100956.00
2022-09-15T18:50:07.349Z,100962.31
2022-09-15T18:52:29.493Z,100957.09
2022-09-15T18:54:52.354Z,100960.59
2022-09-15T18:57:14.186Z,100961.34
2022-09-15T18:59:36.014Z,100962.88
2022-09-15T19:01:57.903Z,100967.19
2022-09-15T19:04:19.749Z,100956.44
2022-09-15T19:06:41.927Z,100956.72
2022-09-15T19:09:03.857Z,100957.06
2022-09-15T19:11:28.851Z,100974.47
2022-09-15T19:13:53.467Z,100963.28
2022-09-15T19:16:15.454Z,100962.41
2022-09-15T19:18:37.984Z,100969.09
2022-09-15T19:21:11.780Z,100974.28
2022-09-15T19:23:35.978Z,100981.38
2022-09-15T19:25:57.794Z,100978.59
2022-09-15T19:28:19.591Z,100983.34
2022-09-15T19:30:41.354Z,100990.88
2022-09-15T19:33:03.398Z,100995.59
2022-09-15T19:35:25.231Z,100999.09
2022-09-15T19:37:47.354Z,100993.91
2022-09-15T19:40:13.965Z,100999.03
2022-09-15T19:42:38.519Z,100991.06
2022-09-15T19:45:00.249Z,100994.56
2022-09-15T19:47:22.064Z,100998.47
2022-09-15T19:49:44.281Z,100996.16
2022-09-15T19:52:06.593Z,101001.81
2022-09-15T19:54:30.977Z,101003.06
2022-09-15T19:56:53.149Z,100995.09
2022-09-15T19:59:15.070Z,100997.41
2022-09-15T20:01:37.109Z,100998.94
2022-09-15T20:03:59.466Z,100994.56
2022-09-15T20:06:22.111Z,100994.56
2022-09-15T20:08:45.806Z,100992.13
2022-09-15T20:11:09.297Z,100995.25
2022-09-15T20:13:31.404Z,100994.91
2022-09-15T20:16:02.689Z,100986.94
2022-09-15T20:18:25.431Z,100988.13
2022-09-15T20:20:47.169Z,100991.25
2022-09-15T20:23:09.097Z,100995.19
2022-09-15T20:25:30.973Z,100999.50
2022-09-15T20:27:52.981Z,100992.69
2022-09-15T20:30:14.891Z,100997.78
2022-09-15T20:32:36.714Z,100999.66
2022-09-15T20:34:58.848Z,101003.97
2022-09-15T20:37:22.428Z,101011.47
2022-09-15T20:39:47.931Z,101007.47
2022-09-15T20:42:09.776Z,101017.28
2022-09-15T20:44:31.551Z,101016.03
2022-09-15T20:46:53.372Z,101011.22
2022-09-15T20:49:15.801Z,101015.97
2022-09-15T20:51:37.574Z,101016.31
2022-09-15T20:54:02.092Z,101017.84
2022-09-15T20:56:28.582Z,101027.69
2022-09-15T20:58:55.184Z,101026.75
2022-09-15T21:01:24.570Z,101031.84
2022-09-15T21:03:47.862Z,101033.75
2022-09-15T21:06:14.407Z,101024.56
2022-09-15T21:08:37.676Z,101018.72
2022-09-15T21:10:59.442Z,101014.34
2022-09-15T21:13:24.688Z,101025.75
2022-09-15T21:16:02.405Z,101026.09
2022-09-15T21:18:35.623Z,101027.16
2022-09-15T21:21:10.272Z,101019.47
2022-09-15T21:23:40.278Z,101021.34
2022-09-15T21:26:07.408Z,101028.75
2022-09-15T21:28:30.454Z,101032.22
2022-09-15T21:30:53.651Z,101027.41
2022-09-15T21:33:15.573Z,101025.78
2022-09-15T21:35:37.401Z,101031.22
2022-09-15T21:38:00.751Z,101036.78
2022-09-15T21:40:22.707Z,101036.44
2022-09-15T21:42:44.484Z,101032.47
2022-09-15T21:45:07.448Z,101032.94
2022-09-15T21:47:30.098Z,101035.34
2022-09-15T21:49:51.867Z,101033.03
2022-09-15T21:52:13.606Z,101040.66
2022-09-15T21:54:35.339Z,101039.47
2022-09-15T21:56:57.479Z,101033.13
2022-09-15T21:59:19.280Z,101028.31
2022-09-15T22:01:41.648Z,101033.41
2022-09-15T22:04:10.416Z,101037.78
2022-09-15T22:06:35.909Z,101031.44
2022-09-15T22:09:00.004Z,101029.81
2022-09-15T22:11:23.332Z,101029.81
2022-09-15T22:13:45.039Z,101026.69
2022-09-15T22:16:17.870Z,101021.13
2022-09-15T22:18:41.793Z,101013.63
2022-09-15T22:21:22.422Z,101018.38
2022-09-15T22:23:46.557Z,101026.69
2022-09-15T22:26:16.229Z,101017.56
2022-09-15T22:28:39.058Z,101016.84
2022-09-15T22:31:03.530Z,101023.66
2022-09-15T22:33:25.766Z,101020.44
2022-09-15T22:35:47.732Z,101026.69
2022-09-15T22:38:09.498Z,101025.09
2022-09-15T22:40:31.347Z,101024.63
2022-09-15T22:42:53.153Z,101019.44
2022-09-15T22:45:15.088Z,101025.78
2022-09-15T22:47:36.905Z,101023.38
2022-09-15T22:49:58.664Z,101020.59
2022-09-15T22:52:21.222Z,101022.56
2022-09-15T22:54:43.010Z,101022.13
2022-09-15T22:57:05.128Z,101026.75
2022-09-15T22:59:27.788Z,101027.47
2022-09-15T23:01:49.677Z,101027.00
2022-09-15T23:04:11.602Z,101024.22
2022-09-15T23:06:34.799Z,101019.50
2022-09-15T23:09:00.591Z,101023.06
2022-09-15T23:11:24.401Z,101018.22
2022-09-15T23:13:46.737Z,101019.75
2022-09-15T23:16:09.733Z,101018.16
2022-09-15T23:18:32.498Z,101014.53
2022-09-15T23:21:09.603Z,101010.97
2022-09-15T23:23:31.418Z,101013.66
2022-09-15T23:25:53.245Z,101004.09
2022-09-15T23:28:14.964Z,101008.38
2022-09-15T23:30:38.699Z,101007.09
2022-09-15T23:33:00.512Z,101014.59
2022-09-15T23:35:22.253Z,101007.78
2022-09-15T23:37:44.229Z,101002.25
2022-09-15T23:40:06.442Z,100995.91
2022-09-15T23:42:28.220Z,101003.41
2022-09-15T23:44:50.010Z,100994.31
2022-09-15T23:47:11.762Z,100996.25
2022-09-15T23:49:33.518Z,100990.72
2022-09-15T23:51:55.289Z,100993.84
2022-09-15T23:54:17.221Z,100997.75
2022-09-15T23:56:39.128Z,101002.50
2022-09-15T23:59:00.952Z,101000.91
